Terminal Aerodrome Forecast
Issued by NWS Twin Cities, MN

Home | Current Version | Previous Version | Text Only | Print | Product List | Glossary Off
Versions: 1 2 3 4 5 6 7 8 9 10 11 12 13 14 15 16

456
FTUS43 KMPX 201127
TAFSTC
TAF
KSTC 201127Z 2012/2112 16005KT P6SM SKC WS020/22040KT
     FM201400 17008KT P6SM SKC
     FM201600 18013G20KT P6SM SKC
     FM201900 17017G27KT P6SM SKC
     FM210300 17012G24KT P6SM BKN110
     FM211000 17015G22KT P6SM VCSH BKN035=

USA.gov is the U.S. government's official web portal to all federal, state and local government web resources and services.